PWSweather.com
Personal Weather Stations
Station Observations
TORPERJOSANG
Carretera De Villel SN , MochalesES 19332

Carretera De Villel SN MochalesES 19332

Lat: 41.09957, Lon: -2.012569

Elevation: 3215

Station Type: PSW-20

http://www.torresp.com

High Low Average
Temperature 77.4°F25.2°C 54.7°F12.6°C 64.8°F18.2°C
Dew Point 56.6°F13.7°C 44.5°F6.9°C 49.9°F9.9°C
Winds 16.1 mph 25.9 kmh Calm Calm 5.0 mph W8.0 kmh W
Wind Gusts 23.0 mph37.0 kmh -- 8.0 mph12.9 kmh
Humidity 88% 35% 61%
Pressure 30.06 in1017.9 mb 29.94 in1013.9 mb -
Precipitation 0.00 in0.0 mm - -
Hour Temp Dew Point Humidity Winds Wind Gusts Pressure Precip Precip Rate Daily Precip Total
12:00 AM 56.5°F13.6°C 49.4°F9.7°C 77% 3.5 mph W5.6 kmh W 4.6 mph7.4 kmh 30.06 in1017.9 mb - 0.00 in0.0 mm 0.00 in0.0 mm
12:10 AM 56.8°F13.8°C 49.7°F9.8°C 77% 3.5 mph NW5.6 kmh NW 5.8 mph9.3 kmh 30.06 in1017.9 mb - 0.00 in0.0 mm 0.00 in0.0 mm
12:15 AM 56.5°F13.6°C 49.4°F9.7°C 77% 3.5 mph W5.6 kmh W 4.6 mph7.4 kmh 30.06 in1017.9 mb - 0.00 in0.0 mm 0.00 in0.0 mm
12:20 AM 56.3°F13.5°C 49.2°F9.6°C 77% 5.8 mph W9.3 kmh W 8.1 mph13.0 kmh 30.06 in1017.9 mb - 0.00 in0.0 mm 0.00 in0.0 mm
12:25 AM 56.0°F13.3°C 48.8°F9.3°C 77% 3.5 mph NW5.6 kmh NW 4.6 mph7.4 kmh 30.06 in1017.9 mb - 0.00 in0.0 mm 0.00 in0.0 mm
12:30 AM 55.8°F13.2°C 48.7°F9.3°C 77% 3.5 mph WSW5.6 kmh WSW 4.6 mph7.4 kmh 30.06 in1017.9 mb - 0.00 in0.0 mm 0.00 in0.0 mm
12:35 AM 55.8°F13.2°C 48.7°F9.3°C 77% 3.5 mph W5.6 kmh W 5.8 mph9.3 kmh 30.06 in1017.9 mb - 0.00 in0.0 mm 0.00 in0.0 mm
12:40 AM 55.6°F13.1°C 48.5°F9.2°C 77% 3.5 mph NW5.6 kmh NW 5.8 mph9.3 kmh 30.06 in1017.9 mb - 0.00 in0.0 mm 0.00 in0.0 mm
12:45 AM 55.1°F12.8°C 48.3°F9.1°C 78% 3.5 mph NW5.6 kmh NW 4.6 mph7.4 kmh 30.06 in1017.9 mb - 0.00 in0.0 mm 0.00 in0.0 mm
12:50 AM 54.7°F12.6°C 48.0°F8.9°C 78% 2.3 mph W3.7 kmh W 3.5 mph5.6 kmh 30.06 in1017.9 mb - 0.00 in0.0 mm 0.00 in0.0 mm
12:55 AM 54.7°F12.6°C 48.3°F9.1°C 79% 3.5 mph W5.6 kmh W 8.1 mph13.0 kmh 30.06 in1017.9 mb - 0.00 in0.0 mm 0.00 in0.0 mm
01:00 AM 55.2°F12.9°C 49.1°F9.5°C 80% 5.8 mph SW9.3 kmh SW 8.1 mph13.0 kmh 30.06 in1017.9 mb - 0.00 in0.0 mm 0.00 in0.0 mm
01:10 AM 55.8°F13.2°C 49.0°F9.4°C 78% 4.6 mph WNW7.4 kmh WNW 8.1 mph13.0 kmh 30.06 in1017.9 mb - 0.00 in0.0 mm 0.00 in0.0 mm
01:15 AM 56.1°F13.4°C 49.4°F9.7°C 78% 6.9 mph NW11.1 kmh NW 9.2 mph14.8 kmh 30.06 in1017.9 mb - 0.00 in0.0 mm 0.00 in0.0 mm
01:20 AM 56.1°F13.4°C 49.0°F9.4°C 77% 3.5 mph NW5.6 kmh NW 5.8 mph9.3 kmh 30.06 in1017.9 mb - 0.00 in0.0 mm 0.00 in0.0 mm
01:25 AM 55.9°F13.3°C 48.8°F9.3°C 77% 4.6 mph W7.4 kmh W 5.8 mph9.3 kmh 30.06 in1017.9 mb - 0.00 in0.0 mm 0.00 in0.0 mm
01:30 AM 55.8°F13.2°C 48.7°F9.3°C 77% 4.6 mph NW7.4 kmh NW 5.8 mph9.3 kmh 30.06 in1017.9 mb - 0.00 in0.0 mm 0.00 in0.0 mm
01:35 AM 55.8°F13.2°C 48.7°F9.3°C 77% 4.6 mph W7.4 kmh W 5.8 mph9.3 kmh 30.06 in1017.9 mb - 0.00 in0.0 mm 0.00 in0.0 mm
01:40 AM 55.8°F13.2°C 48.7°F9.3°C 77% 4.6 mph W7.4 kmh W 8.1 mph13.0 kmh 30.06 in1017.9 mb - 0.00 in0.0 mm 0.00 in0.0 mm
01:45 AM 55.8°F13.2°C 48.7°F9.3°C 77% 4.6 mph W7.4 kmh W 8.1 mph13.0 kmh 30.06 in1017.9 mb - 0.00 in0.0 mm 0.00 in0.0 mm
01:50 AM 55.6°F13.1°C 48.5°F9.2°C 77% 6.9 mph WSW11.1 kmh WSW 8.1 mph13.0 kmh 30.06 in1017.9 mb - 0.00 in0.0 mm 0.00 in0.0 mm
01:55 AM 55.4°F13.0°C 48.3°F9.1°C 77% 5.8 mph NW9.3 kmh NW 8.1 mph13.0 kmh 30.06 in1017.9 mb - 0.00 in0.0 mm 0.00 in0.0 mm
02:00 AM 55.6°F13.1°C 48.5°F9.2°C 77% 3.5 mph W5.6 kmh W 6.9 mph11.1 kmh 30.06 in1017.9 mb - 0.00 in0.0 mm 0.00 in0.0 mm
02:10 AM 55.9°F13.3°C 48.5°F9.2°C 76% 3.5 mph W5.6 kmh W 4.6 mph7.4 kmh 30.06 in1017.9 mb - 0.00 in0.0 mm 0.00 in0.0 mm
02:15 AM 55.8°F13.2°C 48.3°F9.1°C 76% 4.6 mph SW7.4 kmh SW 8.1 mph13.0 kmh 30.06 in1017.9 mb - 0.00 in0.0 mm 0.00 in0.0 mm
02:20 AM 55.6°F13.1°C 48.1°F8.9°C 76% 6.9 mph SW11.1 kmh SW 9.2 mph14.8 kmh 30.06 in1017.9 mb - 0.00 in0.0 mm 0.00 in0.0 mm
02:25 AM 55.9°F13.3°C 48.5°F9.2°C 76% 8.1 mph NW13.0 kmh NW 12.7 mph20.4 kmh 30.06 in1017.9 mb - 0.00 in0.0 mm 0.00 in0.0 mm
02:30 AM 56.5°F13.6°C 48.6°F9.2°C 75% 6.9 mph W11.1 kmh W 12.7 mph20.4 kmh 30.06 in1017.9 mb - 0.00 in0.0 mm 0.00 in0.0 mm
02:35 AM 56.8°F13.8°C 49.0°F9.4°C 75% 8.1 mph W13.0 kmh W 12.7 mph20.4 kmh 30.06 in1017.9 mb - 0.00 in0.0 mm 0.00 in0.0 mm
02:40 AM 57.0°F13.9°C 48.8°F9.3°C 74% 6.9 mph NW11.1 kmh NW 10.4 mph16.7 kmh 30.06 in1017.9 mb - 0.00 in0.0 mm 0.00 in0.0 mm
02:45 AM 56.8°F13.8°C 48.3°F9.1°C 73% 6.9 mph W11.1 kmh W 10.4 mph16.7 kmh 30.06 in1017.9 mb - 0.00 in0.0 mm 0.00 in0.0 mm
02:50 AM 56.8°F13.8°C 48.3°F9.1°C 73% 6.9 mph NW11.1 kmh NW 10.4 mph16.7 kmh 30.06 in1017.9 mb - 0.00 in0.0 mm 0.00 in0.0 mm
02:55 AM 56.8°F13.8°C 48.3°F9.1°C 73% 9.2 mph NW14.8 kmh NW 11.5 mph18.5 kmh 30.06 in1017.9 mb - 0.00 in0.0 mm 0.00 in0.0 mm
03:00 AM 57.0°F13.9°C 48.1°F8.9°C 72% 8.1 mph NW13.0 kmh NW 10.4 mph16.7 kmh 30.06 in1017.9 mb - 0.00 in0.0 mm 0.00 in0.0 mm
03:10 AM 57.0°F13.9°C 47.7°F8.7°C 71% 5.8 mph NW9.3 kmh NW 10.4 mph16.7 kmh 30.03 in1016.9 mb - 0.00 in0.0 mm 0.00 in0.0 mm
03:15 AM 57.2°F14.0°C 47.5°F8.6°C 70% 8.1 mph NW13.0 kmh NW 11.5 mph18.5 kmh 30.03 in1016.9 mb - 0.00 in0.0 mm 0.00 in0.0 mm
03:20 AM 57.4°F14.1°C 47.3°F8.5°C 69% 5.8 mph W9.3 kmh W 10.4 mph16.7 kmh 30.03 in1016.9 mb - 0.00 in0.0 mm 0.00 in0.0 mm
03:25 AM 57.6°F14.2°C 47.1°F8.4°C 68% 5.8 mph NW9.3 kmh NW 10.4 mph16.7 kmh 30.03 in1016.9 mb - 0.00 in0.0 mm 0.00 in0.0 mm
03:30 AM 57.7°F14.3°C 46.9°F8.3°C 67% 8.1 mph NW13.0 kmh NW 10.4 mph16.7 kmh 30.03 in1016.9 mb - 0.00 in0.0 mm 0.00 in0.0 mm
03:35 AM 57.7°F14.3°C 46.9°F8.3°C 67% 9.2 mph NW14.8 kmh NW 13.8 mph22.2 kmh 30.03 in1016.9 mb - 0.00 in0.0 mm 0.00 in0.0 mm
03:40 AM 58.1°F14.5°C 46.8°F8.2°C 66% 4.6 mph NW7.4 kmh NW 9.2 mph14.8 kmh 30.03 in1016.9 mb - 0.00 in0.0 mm 0.00 in0.0 mm
03:45 AM 58.1°F14.5°C 46.8°F8.2°C 66% 5.8 mph NW9.3 kmh NW 10.4 mph16.7 kmh 30.03 in1016.9 mb - 0.00 in0.0 mm 0.00 in0.0 mm
03:50 AM 58.1°F14.5°C 46.8°F8.2°C 66% 5.8 mph W9.3 kmh W 8.1 mph13.0 kmh 30.03 in1016.9 mb - 0.00 in0.0 mm 0.00 in0.0 mm
03:55 AM 57.9°F14.4°C 46.6°F8.1°C 66% 8.1 mph W13.0 kmh W 11.5 mph18.5 kmh 30.03 in1016.9 mb - 0.00 in0.0 mm 0.00 in0.0 mm
04:00 AM 57.9°F14.4°C 46.6°F8.1°C 66% 5.8 mph NW9.3 kmh NW 9.2 mph14.8 kmh 30.03 in1016.9 mb - 0.00 in0.0 mm 0.00 in0.0 mm
04:10 AM 57.7°F14.3°C 46.5°F8.1°C 66% 5.8 mph WSW9.3 kmh WSW 8.1 mph13.0 kmh 30.03 in1016.9 mb - 0.00 in0.0 mm 0.00 in0.0 mm
04:15 AM 57.9°F14.4°C 46.6°F8.1°C 66% 4.6 mph NW7.4 kmh NW 5.8 mph9.3 kmh 30.03 in1016.9 mb - 0.00 in0.0 mm 0.00 in0.0 mm
04:20 AM 57.9°F14.4°C 46.6°F8.1°C 66% 3.5 mph W5.6 kmh W 5.8 mph9.3 kmh 30.03 in1016.9 mb - 0.00 in0.0 mm 0.00 in0.0 mm
04:25 AM 57.7°F14.3°C 46.9°F8.3°C 67% 5.8 mph NW9.3 kmh NW 8.1 mph13.0 kmh 30.03 in1016.9 mb - 0.00 in0.0 mm 0.00 in0.0 mm
04:30 AM 57.7°F14.3°C 46.9°F8.3°C 67% 3.5 mph NW5.6 kmh NW 5.8 mph9.3 kmh 30.03 in1016.9 mb - 0.00 in0.0 mm 0.00 in0.0 mm
04:35 AM 57.6°F14.2°C 46.7°F8.2°C 67% 4.6 mph W7.4 kmh W 6.9 mph11.1 kmh 30.03 in1016.9 mb - 0.00 in0.0 mm 0.00 in0.0 mm
04:40 AM 57.4°F14.1°C 46.5°F8.1°C 67% 6.9 mph NW11.1 kmh NW 8.1 mph13.0 kmh 30.03 in1016.9 mb - 0.00 in0.0 mm 0.00 in0.0 mm
04:45 AM 57.6°F14.2°C 46.7°F8.2°C 67% 5.8 mph NW9.3 kmh NW 8.1 mph13.0 kmh 30.03 in1016.9 mb - 0.00 in0.0 mm 0.00 in0.0 mm
04:50 AM 57.6°F14.2°C 46.7°F8.2°C 67% 9.2 mph W14.8 kmh W 10.4 mph16.7 kmh 30.03 in1016.9 mb - 0.00 in0.0 mm 0.00 in0.0 mm
04:55 AM 57.6°F14.2°C 46.7°F8.2°C 67% 5.8 mph W9.3 kmh W 6.9 mph11.1 kmh 30.03 in1016.9 mb - 0.00 in0.0 mm 0.00 in0.0 mm
05:00 AM 57.6°F14.2°C 46.7°F8.2°C 67% 5.8 mph WNW9.3 kmh WNW 8.1 mph13.0 kmh 30.03 in1016.9 mb - 0.00 in0.0 mm 0.00 in0.0 mm
05:10 AM 57.6°F14.2°C 46.7°F8.2°C 67% 6.9 mph NW11.1 kmh NW 8.1 mph13.0 kmh 30.03 in1016.9 mb - 0.00 in0.0 mm 0.00 in0.0 mm
05:15 AM 57.7°F14.3°C 46.8°F8.2°C 67% 6.9 mph NW11.1 kmh NW 8.1 mph13.0 kmh 30.03 in1016.9 mb - 0.00 in0.0 mm 0.00 in0.0 mm
05:20 AM 57.9°F14.4°C 46.6°F8.1°C 66% 6.9 mph NW11.1 kmh NW 10.4 mph16.7 kmh 30.03 in1016.9 mb - 0.00 in0.0 mm 0.00 in0.0 mm
05:25 AM 58.3°F14.6°C 47.0°F8.3°C 66% 6.9 mph W11.1 kmh W 10.4 mph16.7 kmh 30.03 in1016.9 mb - 0.00 in0.0 mm 0.00 in0.0 mm
05:30 AM 58.3°F14.6°C 46.6°F8.1°C 65% 8.1 mph NW13.0 kmh NW 10.4 mph16.7 kmh 30.03 in1016.9 mb - 0.00 in0.0 mm 0.00 in0.0 mm
05:35 AM 58.3°F14.6°C 46.6°F8.1°C 65% 6.9 mph NW11.1 kmh NW 11.5 mph18.5 kmh 30.03 in1016.9 mb - 0.00 in0.0 mm 0.00 in0.0 mm
05:40 AM 58.3°F14.6°C 46.6°F8.1°C 65% 5.8 mph W9.3 kmh W 8.1 mph13.0 kmh 30.03 in1016.9 mb - 0.00 in0.0 mm 0.00 in0.0 mm
05:45 AM 58.1°F14.5°C 46.4°F8.0°C 65% 5.8 mph W9.3 kmh W 8.1 mph13.0 kmh 30.03 in1016.9 mb - 0.00 in0.0 mm 0.00 in0.0 mm
05:50 AM 57.9°F14.4°C 46.6°F8.1°C 66% 6.9 mph NW11.1 kmh NW 9.2 mph14.8 kmh 30.03 in1016.9 mb - 0.00 in0.0 mm 0.00 in0.0 mm
05:55 AM 57.7°F14.3°C 46.5°F8.1°C 66% 4.6 mph NW7.4 kmh NW 8.1 mph13.0 kmh 30.03 in1016.9 mb - 0.00 in0.0 mm 0.00 in0.0 mm
06:00 AM 57.6°F14.2°C 46.3°F7.9°C 66% 3.5 mph NW5.6 kmh NW 5.8 mph9.3 kmh 30.03 in1016.9 mb - 0.00 in0.0 mm 0.00 in0.0 mm
06:10 AM 57.4°F14.1°C 46.5°F8.1°C 67% 2.3 mph WSW3.7 kmh WSW 4.6 mph7.4 kmh 30.03 in1016.9 mb - 0.00 in0.0 mm 0.00 in0.0 mm
06:15 AM 57.2°F14.0°C 46.3°F7.9°C 67% 3.5 mph NW5.6 kmh NW 5.8 mph9.3 kmh 30.03 in1016.9 mb - 0.00 in0.0 mm 0.00 in0.0 mm
06:20 AM 57.0°F13.9°C 46.6°F8.1°C 68% 3.5 mph W5.6 kmh W 4.6 mph7.4 kmh 30.03 in1016.9 mb - 0.00 in0.0 mm 0.00 in0.0 mm
06:25 AM 56.8°F13.8°C 46.8°F8.2°C 69% 4.6 mph W7.4 kmh W 5.8 mph9.3 kmh 30.03 in1016.9 mb - 0.00 in0.0 mm 0.00 in0.0 mm
06:30 AM 56.8°F13.8°C 46.8°F8.2°C 69% 5.8 mph NW9.3 kmh NW 8.1 mph13.0 kmh 30.03 in1016.9 mb - 0.00 in0.0 mm 0.00 in0.0 mm
06:35 AM 56.8°F13.8°C 46.8°F8.2°C 69% 6.9 mph W11.1 kmh W 9.2 mph14.8 kmh 30.03 in1016.9 mb - 0.00 in0.0 mm 0.00 in0.0 mm
06:40 AM 56.8°F13.8°C 47.2°F8.4°C 70% 8.1 mph NW13.0 kmh NW 10.4 mph16.7 kmh 30.03 in1016.9 mb - 0.00 in0.0 mm 0.00 in0.0 mm
06:45 AM 56.8°F13.8°C 47.2°F8.4°C 70% 6.9 mph W11.1 kmh W 10.4 mph16.7 kmh 30.03 in1016.9 mb - 0.00 in0.0 mm 0.00 in0.0 mm
06:50 AM 57.0°F13.9°C 47.3°F8.5°C 70% 9.2 mph W14.8 kmh W 12.7 mph20.4 kmh 30.03 in1016.9 mb - 0.00 in0.0 mm 0.00 in0.0 mm
06:55 AM 57.0°F13.9°C 47.3°F8.5°C 70% 8.1 mph W13.0 kmh W 11.5 mph18.5 kmh 30.03 in1016.9 mb - 0.00 in0.0 mm 0.00 in0.0 mm
07:00 AM 57.0°F13.9°C 47.3°F8.5°C 70% 8.1 mph NW13.0 kmh NW 10.4 mph16.7 kmh 30.03 in1016.9 mb - 0.00 in0.0 mm 0.00 in0.0 mm
07:10 AM 56.8°F13.8°C 47.2°F8.4°C 70% 3.5 mph WNW5.6 kmh WNW 6.9 mph11.1 kmh 30.03 in1016.9 mb - 0.00 in0.0 mm 0.00 in0.0 mm
07:15 AM 56.7°F13.7°C 47.4°F8.6°C 71% 4.6 mph NW7.4 kmh NW 5.8 mph9.3 kmh 30.03 in1016.9 mb - 0.00 in0.0 mm 0.00 in0.0 mm
07:20 AM 56.5°F13.6°C 47.2°F8.4°C 71% 3.5 mph NW5.6 kmh NW 5.8 mph9.3 kmh 30.03 in1016.9 mb - 0.00 in0.0 mm 0.00 in0.0 mm
07:25 AM 56.3°F13.5°C 47.0°F8.3°C 71% 4.6 mph NW7.4 kmh NW 5.8 mph9.3 kmh 30.03 in1016.9 mb - 0.00 in0.0 mm 0.00 in0.0 mm
07:30 AM 56.3°F13.5°C 47.0°F8.3°C 71% 3.5 mph W5.6 kmh W 4.6 mph7.4 kmh 30.03 in1016.9 mb - 0.00 in0.0 mm 0.00 in0.0 mm
07:35 AM 56.3°F13.5°C 47.0°F8.3°C 71% 3.5 mph WSW5.6 kmh WSW 8.1 mph13.0 kmh 30.03 in1016.9 mb - 0.00 in0.0 mm 0.00 in0.0 mm
07:40 AM 56.3°F13.5°C 47.0°F8.3°C 71% 3.5 mph W5.6 kmh W 4.6 mph7.4 kmh 30.03 in1016.9 mb - 0.00 in0.0 mm 0.00 in0.0 mm
07:45 AM 56.1°F13.4°C 46.8°F8.2°C 71% 5.8 mph NW9.3 kmh NW 5.8 mph9.3 kmh 30.03 in1016.9 mb - 0.00 in0.0 mm 0.00 in0.0 mm
07:50 AM 55.9°F13.3°C 47.0°F8.3°C 72% 4.6 mph NW7.4 kmh NW 6.9 mph11.1 kmh 30.03 in1016.9 mb - 0.00 in0.0 mm 0.00 in0.0 mm
07:55 AM 55.9°F13.3°C 47.0°F8.3°C 72% 3.5 mph W5.6 kmh W 6.9 mph11.1 kmh 30.03 in1016.9 mb - 0.00 in0.0 mm 0.00 in0.0 mm
08:00 AM 56.3°F13.5°C 47.4°F8.6°C 72% 6.9 mph W11.1 kmh W 9.2 mph14.8 kmh 30.03 in1016.9 mb - 0.00 in0.0 mm 0.00 in0.0 mm
08:10 AM 57.6°F14.2°C 47.5°F8.6°C 69% 3.5 mph WSW5.6 kmh WSW 5.8 mph9.3 kmh 30.03 in1016.9 mb - 0.00 in0.0 mm 0.00 in0.0 mm
08:15 AM 58.1°F14.5°C 48.0°F8.9°C 69% 3.5 mph SW5.6 kmh SW 4.6 mph7.4 kmh 30.03 in1016.9 mb - 0.00 in0.0 mm 0.00 in0.0 mm
08:20 AM 58.8°F14.9°C 48.7°F9.3°C 69% 1.2 mph W1.9 kmh W 1.2 mph1.9 kmh 30.03 in1016.9 mb - 0.00 in0.0 mm 0.00 in0.0 mm
08:25 AM 59.7°F15.4°C 49.5°F9.7°C 69% Calm Calm 1.2 mph1.9 kmh 30.03 in1016.9 mb - 0.00 in0.0 mm 0.00 in0.0 mm
08:30 AM 60.6°F15.9°C 50.0°F10.0°C 68% Calm Calm 1.2 mph1.9 kmh 30.03 in1016.9 mb - 0.00 in0.0 mm 0.00 in0.0 mm
08:35 AM 61.5°F16.4°C 50.5°F10.3°C 67% 1.2 mph SW1.9 kmh SW 2.3 mph3.7 kmh 30.03 in1016.9 mb - 0.00 in0.0 mm 0.00 in0.0 mm
08:40 AM 62.4°F16.9°C 50.9°F10.5°C 66% 1.2 mph W1.9 kmh W 2.3 mph3.7 kmh 30.03 in1016.9 mb - 0.00 in0.0 mm 0.00 in0.0 mm
08:45 AM 63.1°F17.3°C 50.3°F10.2°C 63% Calm Calm 2.3 mph3.7 kmh 30.03 in1016.9 mb - 0.00 in0.0 mm 0.00 in0.0 mm
08:50 AM 63.5°F17.5°C 50.2°F10.1°C 62% 2.3 mph SW3.7 kmh SW 5.8 mph9.3 kmh 30.03 in1016.9 mb - 0.00 in0.0 mm 0.00 in0.0 mm
08:55 AM 63.7°F17.6°C 49.1°F9.5°C 59% 3.5 mph SW5.6 kmh SW 6.9 mph11.1 kmh 30.03 in1016.9 mb - 0.00 in0.0 mm 0.00 in0.0 mm
09:00 AM 63.7°F17.6°C 49.1°F9.5°C 59% 4.6 mph SW7.4 kmh SW 8.1 mph13.0 kmh 30.03 in1016.9 mb - 0.00 in0.0 mm 0.00 in0.0 mm
09:10 AM 63.9°F17.7°C 47.4°F8.6°C 55% 5.8 mph NW9.3 kmh NW 11.5 mph18.5 kmh 30.03 in1016.9 mb - 0.00 in0.0 mm 0.00 in0.0 mm
09:15 AM 64.0°F17.8°C 47.1°F8.4°C 54% 5.8 mph SW9.3 kmh SW 15.0 mph24.1 kmh 30.03 in1016.9 mb - 0.00 in0.0 mm 0.00 in0.0 mm
09:20 AM 64.2°F17.9°C 47.2°F8.4°C 54% 6.9 mph NW11.1 kmh NW 15.0 mph24.1 kmh 30.03 in1016.9 mb - 0.00 in0.0 mm 0.00 in0.0 mm
09:25 AM 64.7°F18.2°C 48.2°F9.0°C 55% 6.9 mph NNW11.1 kmh NNW 10.4 mph16.7 kmh 30.03 in1016.9 mb - 0.00 in0.0 mm 0.00 in0.0 mm
09:30 AM 65.1°F18.4°C 48.1°F8.9°C 54% 9.2 mph WNW14.8 kmh WNW 18.4 mph29.6 kmh 30.03 in1016.9 mb - 0.00 in0.0 mm 0.00 in0.0 mm
09:35 AM 65.3°F18.5°C 47.2°F8.4°C 52% 8.1 mph NW13.0 kmh NW 16.1 mph25.9 kmh 30.03 in1016.9 mb - 0.00 in0.0 mm 0.00 in0.0 mm
09:40 AM 65.6°F18.7°C 47.0°F8.3°C 51% 11.5 mph NW18.5 kmh NW 19.6 mph31.5 kmh 30.03 in1016.9 mb - 0.00 in0.0 mm 0.00 in0.0 mm
09:45 AM 65.8°F18.8°C 47.2°F8.4°C 51% 16.1 mph NW25.9 kmh NW 20.7 mph33.3 kmh 30.03 in1016.9 mb - 0.00 in0.0 mm 0.00 in0.0 mm
09:50 AM 66.2°F19.0°C 45.9°F7.7°C 48% 10.4 mph W16.7 kmh W 17.3 mph27.8 kmh 30.03 in1016.9 mb - 0.00 in0.0 mm 0.00 in0.0 mm
09:55 AM 66.5°F19.2°C 46.8°F8.2°C 49% 6.9 mph NW11.1 kmh NW 15.0 mph24.1 kmh 30.03 in1016.9 mb - 0.00 in0.0 mm 0.00 in0.0 mm
10:00 AM 66.7°F19.3°C 47.0°F8.3°C 49% 11.5 mph NW18.5 kmh NW 16.1 mph25.9 kmh 30.03 in1016.9 mb - 0.00 in0.0 mm 0.00 in0.0 mm
10:10 AM 67.1°F19.5°C 47.3°F8.5°C 49% 11.5 mph NW18.5 kmh NW 17.3 mph27.8 kmh 30.03 in1016.9 mb - 0.00 in0.0 mm 0.00 in0.0 mm
10:15 AM 67.1°F19.5°C 46.7°F8.2°C 48% 11.5 mph W18.5 kmh W 19.6 mph31.5 kmh 30.03 in1016.9 mb - 0.00 in0.0 mm 0.00 in0.0 mm
10:20 AM 67.1°F19.5°C 46.7°F8.2°C 48% 9.2 mph NW14.8 kmh NW 15.0 mph24.1 kmh 30.03 in1016.9 mb - 0.00 in0.0 mm 0.00 in0.0 mm
10:25 AM 67.4°F19.7°C 48.2°F9.0°C 50% 3.5 mph WSW5.6 kmh WSW 10.4 mph16.7 kmh 30.03 in1016.9 mb - 0.00 in0.0 mm 0.00 in0.0 mm
10:30 AM 67.8°F19.9°C 47.4°F8.6°C 48% 8.1 mph W13.0 kmh W 13.8 mph22.2 kmh 30.03 in1016.9 mb - 0.00 in0.0 mm 0.00 in0.0 mm
10:35 AM 67.8°F19.9°C 47.4°F8.6°C 48% 11.5 mph NW18.5 kmh NW 17.3 mph27.8 kmh 30.03 in1016.9 mb - 0.00 in0.0 mm 0.00 in0.0 mm
10:40 AM 67.8°F19.9°C 46.8°F8.2°C 47% 10.4 mph NW16.7 kmh NW 16.1 mph25.9 kmh 30.03 in1016.9 mb - 0.00 in0.0 mm 0.00 in0.0 mm
10:45 AM 68.0°F20.0°C 46.4°F8.0°C 46% 9.2 mph NW14.8 kmh NW 13.8 mph22.2 kmh 30.03 in1016.9 mb - 0.00 in0.0 mm 0.00 in0.0 mm
10:50 AM 68.0°F20.0°C 46.4°F8.0°C 46% 9.2 mph W14.8 kmh W 12.7 mph20.4 kmh 30.03 in1016.9 mb - 0.00 in0.0 mm 0.00 in0.0 mm
10:55 AM 68.2°F20.1°C 46.6°F8.1°C 46% 6.9 mph WNW11.1 kmh WNW 15.0 mph24.1 kmh 30.03 in1016.9 mb - 0.00 in0.0 mm 0.00 in0.0 mm
11:00 AM 68.5°F20.3°C 47.5°F8.6°C 47% 3.5 mph NW5.6 kmh NW 8.1 mph13.0 kmh 30.03 in1016.9 mb - 0.00 in0.0 mm 0.00 in0.0 mm
11:10 AM 69.3°F20.7°C 47.6°F8.7°C 46% 13.8 mph NW22.2 kmh NW 17.3 mph27.8 kmh 30.03 in1016.9 mb - 0.00 in0.0 mm 0.00 in0.0 mm
11:15 AM 69.3°F20.7°C 47.0°F8.3°C 45% 5.8 mph SW9.3 kmh SW 11.5 mph18.5 kmh 30.03 in1016.9 mb - 0.00 in0.0 mm 0.00 in0.0 mm
11:20 AM 69.8°F21.0°C 47.5°F8.6°C 45% 11.5 mph NW18.5 kmh NW 16.1 mph25.9 kmh 30.03 in1016.9 mb - 0.00 in0.0 mm 0.00 in0.0 mm
11:25 AM 69.8°F21.0°C 47.5°F8.6°C 45% 8.1 mph NW13.0 kmh NW 10.4 mph16.7 kmh 30.03 in1016.9 mb - 0.00 in0.0 mm 0.00 in0.0 mm
11:30 AM 70.3°F21.3°C 47.4°F8.6°C 44% 6.9 mph WNW11.1 kmh WNW 12.7 mph20.4 kmh 30.03 in1016.9 mb - 0.00 in0.0 mm 0.00 in0.0 mm
11:35 AM 70.5°F21.4°C 46.9°F8.3°C 43% 11.5 mph W18.5 kmh W 13.8 mph22.2 kmh 30.03 in1016.9 mb - 0.00 in0.0 mm 0.00 in0.0 mm
11:40 AM 70.7°F21.5°C 47.7°F8.7°C 44% 11.5 mph NW18.5 kmh NW 15.0 mph24.1 kmh 30.03 in1016.9 mb - 0.00 in0.0 mm 0.00 in0.0 mm
11:45 AM 70.9°F21.6°C 47.3°F8.5°C 43% 8.1 mph NW13.0 kmh NW 12.7 mph20.4 kmh 30.03 in1016.9 mb - 0.00 in0.0 mm 0.00 in0.0 mm
11:50 AM 71.1°F21.7°C 46.8°F8.2°C 42% 4.6 mph SW7.4 kmh SW 13.8 mph22.2 kmh 30.03 in1016.9 mb - 0.00 in0.0 mm 0.00 in0.0 mm
11:55 AM 71.2°F21.8°C 47.6°F8.7°C 43% 5.8 mph S9.3 kmh S 11.5 mph18.5 kmh 30.03 in1016.9 mb - 0.00 in0.0 mm 0.00 in0.0 mm
12:00 PM 71.8°F22.1°C 46.8°F8.2°C 41% 5.8 mph NW9.3 kmh NW 13.8 mph22.2 kmh 30.03 in1016.9 mb - 0.00 in0.0 mm 0.00 in0.0 mm
12:10 PM 72.5°F22.5°C 45.4°F7.4°C 38% 8.1 mph NW13.0 kmh NW 10.4 mph16.7 kmh 30.03 in1016.9 mb - 0.00 in0.0 mm 0.00 in0.0 mm
12:15 PM 72.7°F22.6°C 47.0°F8.3°C 40% 6.9 mph W11.1 kmh W 16.1 mph25.9 kmh 30.03 in1016.9 mb - 0.00 in0.0 mm 0.00 in0.0 mm
12:20 PM 73.0°F22.8°C 44.5°F6.9°C 36% 2.3 mph E3.7 kmh E 12.7 mph20.4 kmh 30.03 in1016.9 mb - 0.00 in0.0 mm 0.00 in0.0 mm
12:25 PM 73.4°F23.0°C 45.5°F7.5°C 37% 5.8 mph NE9.3 kmh NE 13.8 mph22.2 kmh 30.03 in1016.9 mb - 0.00 in0.0 mm 0.00 in0.0 mm
12:30 PM 73.6°F23.1°C 45.7°F7.6°C 37% 9.2 mph NW14.8 kmh NW 12.7 mph20.4 kmh 30.03 in1016.9 mb - 0.00 in0.0 mm 0.00 in0.0 mm
12:35 PM 73.8°F23.2°C 45.9°F7.7°C 37% 5.8 mph NE9.3 kmh NE 8.1 mph13.0 kmh 30.03 in1016.9 mb - 0.00 in0.0 mm 0.00 in0.0 mm
12:40 PM 73.9°F23.3°C 44.5°F6.9°C 35% 3.5 mph NW5.6 kmh NW 15.0 mph24.1 kmh 30.03 in1016.9 mb - 0.00 in0.0 mm 0.00 in0.0 mm
12:45 PM 74.3°F23.5°C 46.3°F7.9°C 37% 12.7 mph NW20.4 kmh NW 18.4 mph29.6 kmh 30.03 in1016.9 mb - 0.00 in0.0 mm 0.00 in0.0 mm
12:50 PM 74.3°F23.5°C 46.3°F7.9°C 37% 12.7 mph NW20.4 kmh NW 20.7 mph33.3 kmh 30.03 in1016.9 mb - 0.00 in0.0 mm 0.00 in0.0 mm
12:55 PM 73.8°F23.2°C 45.1°F7.3°C 36% 5.8 mph WNW9.3 kmh WNW 9.2 mph14.8 kmh 30.03 in1016.9 mb - 0.00 in0.0 mm 0.00 in0.0 mm
01:00 PM 73.8°F23.2°C 46.6°F8.1°C 38% 9.2 mph WNW14.8 kmh WNW 12.7 mph20.4 kmh 30.03 in1016.9 mb - 0.00 in0.0 mm 0.00 in0.0 mm
01:10 PM 74.3°F23.5°C 47.7°F8.7°C 39% 12.7 mph W20.4 kmh W 16.1 mph25.9 kmh 30.00 in1015.9 mb - 0.00 in0.0 mm 0.00 in0.0 mm
01:15 PM 74.3°F23.5°C 46.3°F7.9°C 37% 8.1 mph NW13.0 kmh NW 17.3 mph27.8 kmh 30.00 in1015.9 mb - 0.00 in0.0 mm 0.00 in0.0 mm
01:20 PM 74.3°F23.5°C 46.3°F7.9°C 37% 8.1 mph NW13.0 kmh NW 12.7 mph20.4 kmh 30.00 in1015.9 mb - 0.00 in0.0 mm 0.00 in0.0 mm
01:25 PM 74.5°F23.6°C 47.2°F8.4°C 38% 6.9 mph SW11.1 kmh SW 10.4 mph16.7 kmh 30.00 in1015.9 mb - 0.00 in0.0 mm 0.00 in0.0 mm
01:30 PM 74.8°F23.8°C 47.5°F8.6°C 38% 2.3 mph SW3.7 kmh SW 10.4 mph16.7 kmh 30.00 in1015.9 mb - 0.00 in0.0 mm 0.00 in0.0 mm
01:35 PM 75.2°F24.0°C 46.4°F8.0°C 36% 1.2 mph W1.9 kmh W 5.8 mph9.3 kmh 30.00 in1015.9 mb - 0.00 in0.0 mm 0.00 in0.0 mm
01:40 PM 75.6°F24.2°C 48.2°F9.0°C 38% 3.5 mph W5.6 kmh W 5.8 mph9.3 kmh 30.00 in1015.9 mb - 0.00 in0.0 mm 0.00 in0.0 mm
01:45 PM 75.9°F24.4°C 47.8°F8.8°C 37% 10.4 mph W16.7 kmh W 13.8 mph22.2 kmh 30.00 in1015.9 mb - 0.00 in0.0 mm 0.00 in0.0 mm
01:50 PM 75.7°F24.3°C 47.6°F8.7°C 37% 9.2 mph W14.8 kmh W 12.7 mph20.4 kmh 30.00 in1015.9 mb - 0.00 in0.0 mm 0.00 in0.0 mm
01:55 PM 75.9°F24.4°C 47.8°F8.8°C 37% 5.8 mph WNW9.3 kmh WNW 10.4 mph16.7 kmh 30.00 in1015.9 mb - 0.00 in0.0 mm 0.00 in0.0 mm
02:00 PM 75.9°F24.4°C 47.0°F8.3°C 36% 4.6 mph SSE7.4 kmh SSE 12.7 mph20.4 kmh 30.00 in1015.9 mb - 0.00 in0.0 mm 0.00 in0.0 mm
02:10 PM 76.3°F24.6°C 48.8°F9.3°C 38% 11.5 mph W18.5 kmh W 13.8 mph22.2 kmh 29.97 in1014.9 mb - 0.00 in0.0 mm 0.00 in0.0 mm
02:15 PM 76.3°F24.6°C 48.8°F9.3°C 38% 6.9 mph N11.1 kmh N 10.4 mph16.7 kmh 29.97 in1014.9 mb - 0.00 in0.0 mm 0.00 in0.0 mm
02:20 PM 76.5°F24.7°C 48.2°F9.0°C 37% 5.8 mph WSW9.3 kmh WSW 16.1 mph25.9 kmh 29.97 in1014.9 mb - 0.00 in0.0 mm 0.00 in0.0 mm
02:25 PM 76.5°F24.7°C 48.2°F9.0°C 37% 11.5 mph SW18.5 kmh SW 15.0 mph24.1 kmh 29.97 in1014.9 mb - 0.00 in0.0 mm 0.00 in0.0 mm
02:30 PM 76.1°F24.5°C 48.7°F9.3°C 38% 4.6 mph NW7.4 kmh NW 12.7 mph20.4 kmh 29.97 in1014.9 mb - 0.00 in0.0 mm 0.00 in0.0 mm
02:35 PM 76.1°F24.5°C 49.3°F9.6°C 39% 4.6 mph W7.4 kmh W 11.5 mph18.5 kmh 29.97 in1014.9 mb - 0.00 in0.0 mm 0.00 in0.0 mm
02:40 PM 76.3°F24.6°C 49.5°F9.7°C 39% 2.3 mph E3.7 kmh E 6.9 mph11.1 kmh 29.97 in1014.9 mb - 0.00 in0.0 mm 0.00 in0.0 mm
02:45 PM 77.0°F25.0°C 50.8°F10.4°C 40% 3.5 mph W5.6 kmh W 6.9 mph11.1 kmh 29.97 in1014.9 mb - 0.00 in0.0 mm 0.00 in0.0 mm
02:50 PM 77.4°F25.2°C 49.8°F9.9°C 38% 6.9 mph NW11.1 kmh NW 15.0 mph24.1 kmh 29.97 in1014.9 mb - 0.00 in0.0 mm 0.00 in0.0 mm
02:55 PM 77.0°F25.0°C 49.5°F9.7°C 38% 6.9 mph NW11.1 kmh NW 17.3 mph27.8 kmh 29.97 in1014.9 mb - 0.00 in0.0 mm 0.00 in0.0 mm
03:00 PM 77.0°F25.0°C 50.1°F10.1°C 39% 3.5 mph SW5.6 kmh SW 8.1 mph13.0 kmh 29.97 in1014.9 mb - 0.00 in0.0 mm 0.00 in0.0 mm
03:10 PM 76.8°F24.9°C 50.0°F10.0°C 39% 12.7 mph NW20.4 kmh NW 17.3 mph27.8 kmh 29.94 in1013.9 mb - 0.00 in0.0 mm 0.00 in0.0 mm
03:15 PM 76.5°F24.7°C 49.7°F9.8°C 39% 16.1 mph NW25.9 kmh NW 23.0 mph37.0 kmh 29.94 in1013.9 mb - 0.00 in0.0 mm 0.00 in0.0 mm
03:20 PM 76.3°F24.6°C 49.5°F9.7°C 39% 6.9 mph NW11.1 kmh NW 12.7 mph20.4 kmh 29.94 in1013.9 mb - 0.00 in0.0 mm 0.00 in0.0 mm
03:25 PM 76.6°F24.8°C 50.5°F10.3°C 40% 6.9 mph W11.1 kmh W 11.5 mph18.5 kmh 29.94 in1013.9 mb - 0.00 in0.0 mm 0.00 in0.0 mm
03:30 PM 76.8°F24.9°C 50.7°F10.4°C 40% 1.2 mph E1.9 kmh E 4.6 mph7.4 kmh 29.94 in1013.9 mb - 0.00 in0.0 mm 0.00 in0.0 mm
03:35 PM 77.2°F25.1°C 50.3°F10.2°C 39% 13.8 mph NW22.2 kmh NW 20.7 mph33.3 kmh 29.94 in1013.9 mb - 0.00 in0.0 mm 0.00 in0.0 mm
03:40 PM 77.2°F25.1°C 49.6°F9.8°C 38% 5.8 mph W9.3 kmh W 15.0 mph24.1 kmh 29.94 in1013.9 mb - 0.00 in0.0 mm 0.00 in0.0 mm
03:45 PM 77.2°F25.1°C 50.3°F10.2°C 39% 6.9 mph WSW11.1 kmh WSW 9.2 mph14.8 kmh 29.94 in1013.9 mb - 0.00 in0.0 mm 0.00 in0.0 mm
03:50 PM 77.4°F25.2°C 49.8°F9.9°C 38% 12.7 mph NW20.4 kmh NW 19.6 mph31.5 kmh 29.94 in1013.9 mb - 0.00 in0.0 mm 0.00 in0.0 mm
03:55 PM 77.2°F25.1°C 50.3°F10.2°C 39% 3.5 mph S5.6 kmh S 5.8 mph9.3 kmh 29.94 in1013.9 mb - 0.00 in0.0 mm 0.00 in0.0 mm
04:00 PM 77.2°F25.1°C 50.3°F10.2°C 39% 4.6 mph WNW7.4 kmh WNW 10.4 mph16.7 kmh 29.94 in1013.9 mb - 0.00 in0.0 mm 0.00 in0.0 mm
04:10 PM 77.0°F25.0°C 50.8°F10.4°C 40% 8.1 mph NW13.0 kmh NW 16.1 mph25.9 kmh 29.94 in1013.9 mb - 0.00 in0.0 mm 0.00 in0.0 mm
04:15 PM 77.0°F25.0°C 51.5°F10.8°C 41% 9.2 mph W14.8 kmh W 12.7 mph20.4 kmh 29.94 in1013.9 mb - 0.00 in0.0 mm 0.00 in0.0 mm
04:20 PM 77.0°F25.0°C 50.8°F10.4°C 40% 9.2 mph WSW14.8 kmh WSW 12.7 mph20.4 kmh 29.94 in1013.9 mb - 0.00 in0.0 mm 0.00 in0.0 mm
04:25 PM 76.8°F24.9°C 51.3°F10.7°C 41% 4.6 mph WSW7.4 kmh WSW 10.4 mph16.7 kmh 29.94 in1013.9 mb - 0.00 in0.0 mm 0.00 in0.0 mm
04:30 PM 76.8°F24.9°C 50.7°F10.4°C 40% 3.5 mph W5.6 kmh W 10.4 mph16.7 kmh 29.94 in1013.9 mb - 0.00 in0.0 mm 0.00 in0.0 mm
04:35 PM 77.0°F25.0°C 50.8°F10.4°C 40% 2.3 mph NW3.7 kmh NW 8.1 mph13.0 kmh 29.94 in1013.9 mb - 0.00 in0.0 mm 0.00 in0.0 mm
04:40 PM 77.4°F25.2°C 50.5°F10.3°C 39% 8.1 mph NW13.0 kmh NW 17.3 mph27.8 kmh 29.94 in1013.9 mb - 0.00 in0.0 mm 0.00 in0.0 mm
04:45 PM 77.4°F25.2°C 50.5°F10.3°C 39% 4.6 mph NW7.4 kmh NW 11.5 mph18.5 kmh 29.94 in1013.9 mb - 0.00 in0.0 mm 0.00 in0.0 mm
04:50 PM 77.4°F25.2°C 51.8°F11.0°C 41% 5.8 mph SW9.3 kmh SW 8.1 mph13.0 kmh 29.94 in1013.9 mb - 0.00 in0.0 mm 0.00 in0.0 mm
04:55 PM 77.4°F25.2°C 49.8°F9.9°C 38% 5.8 mph SW9.3 kmh SW 12.7 mph20.4 kmh 29.94 in1013.9 mb - 0.00 in0.0 mm 0.00 in0.0 mm
05:00 PM 76.8°F24.9°C 50.7°F10.4°C 40% 4.6 mph SW7.4 kmh SW 8.1 mph13.0 kmh 29.94 in1013.9 mb - 0.00 in0.0 mm 0.00 in0.0 mm
05:10 PM 75.9°F24.4°C 51.2°F10.7°C 42% 8.1 mph NW13.0 kmh NW 10.4 mph16.7 kmh 29.94 in1013.9 mb - 0.00 in0.0 mm 0.00 in0.0 mm
05:15 PM 75.4°F24.1°C 51.3°F10.7°C 43% 3.5 mph NW5.6 kmh NW 8.1 mph13.0 kmh 29.94 in1013.9 mb - 0.00 in0.0 mm 0.00 in0.0 mm
05:20 PM 75.2°F24.0°C 51.8°F11.0°C 44% 1.2 mph S1.9 kmh S 3.5 mph5.6 kmh 29.94 in1013.9 mb - 0.00 in0.0 mm 0.00 in0.0 mm
05:25 PM 75.0°F23.9°C 52.2°F11.2°C 45% 5.8 mph NW9.3 kmh NW 15.0 mph24.1 kmh 29.94 in1013.9 mb - 0.00 in0.0 mm 0.00 in0.0 mm
05:30 PM 74.8°F23.8°C 52.1°F11.2°C 45% 4.6 mph W7.4 kmh W 8.1 mph13.0 kmh 29.94 in1013.9 mb - 0.00 in0.0 mm 0.00 in0.0 mm
05:35 PM 74.8°F23.8°C 52.1°F11.2°C 45% 5.8 mph NW9.3 kmh NW 11.5 mph18.5 kmh 29.94 in1013.9 mb - 0.00 in0.0 mm 0.00 in0.0 mm
05:40 PM 74.8°F23.8°C 52.1°F11.2°C 45% 3.5 mph W5.6 kmh W 11.5 mph18.5 kmh 29.94 in1013.9 mb - 0.00 in0.0 mm 0.00 in0.0 mm
05:45 PM 74.5°F23.6°C 51.8°F11.0°C 45% 5.8 mph W9.3 kmh W 8.1 mph13.0 kmh 29.94 in1013.9 mb - 0.00 in0.0 mm 0.00 in0.0 mm
05:50 PM 74.5°F23.6°C 51.7°F10.9°C 45% 5.8 mph W9.3 kmh W 15.0 mph24.1 kmh 29.94 in1013.9 mb - 0.00 in0.0 mm 0.00 in0.0 mm
05:55 PM 74.5°F23.6°C 51.7°F10.9°C 45% 6.9 mph W11.1 kmh W 9.2 mph14.8 kmh 29.94 in1013.9 mb - 0.00 in0.0 mm 0.00 in0.0 mm
06:00 PM 74.3°F23.5°C 51.6°F10.9°C 45% 4.6 mph NW7.4 kmh NW 10.4 mph16.7 kmh 29.94 in1013.9 mb - 0.00 in0.0 mm 0.00 in0.0 mm
06:10 PM 74.1°F23.4°C 52.0°F11.1°C 46% 8.1 mph W13.0 kmh W 10.4 mph16.7 kmh 29.94 in1013.9 mb - 0.00 in0.0 mm 0.00 in0.0 mm
06:15 PM 73.9°F23.3°C 51.8°F11.0°C 46% 4.6 mph NW7.4 kmh NW 9.2 mph14.8 kmh 29.94 in1013.9 mb - 0.00 in0.0 mm 0.00 in0.0 mm
06:20 PM 73.9°F23.3°C 51.8°F11.0°C 46% 5.8 mph SE9.3 kmh SE 8.1 mph13.0 kmh 29.94 in1013.9 mb - 0.00 in0.0 mm 0.00 in0.0 mm
06:25 PM 73.4°F23.0°C 53.7°F12.1°C 50% 5.8 mph E9.3 kmh E 9.2 mph14.8 kmh 29.94 in1013.9 mb - 0.00 in0.0 mm 0.00 in0.0 mm
06:30 PM 72.5°F22.5°C 53.9°F12.2°C 52% 2.3 mph SE3.7 kmh SE 6.9 mph11.1 kmh 29.94 in1013.9 mb - 0.00 in0.0 mm 0.00 in0.0 mm
06:35 PM 71.8°F22.1°C 54.2°F12.3°C 54% 1.2 mph NE1.9 kmh NE 3.5 mph5.6 kmh 29.94 in1013.9 mb - 0.00 in0.0 mm 0.00 in0.0 mm
06:40 PM 71.3°F21.8°C 54.7°F12.6°C 56% 1.2 mph S1.9 kmh S 3.5 mph5.6 kmh 29.94 in1013.9 mb - 0.00 in0.0 mm 0.00 in0.0 mm
06:45 PM 70.7°F21.5°C 55.7°F13.2°C 59% 11.5 mph E18.5 kmh E 15.0 mph24.1 kmh 29.94 in1013.9 mb - 0.00 in0.0 mm 0.00 in0.0 mm
06:50 PM 69.8°F21.0°C 56.2°F13.4°C 62% 3.5 mph E5.6 kmh E 5.8 mph9.3 kmh 29.94 in1013.9 mb - 0.00 in0.0 mm 0.00 in0.0 mm
06:55 PM 69.5°F20.8°C 56.3°F13.5°C 63% 1.2 mph SE1.9 kmh SE 4.6 mph7.4 kmh 29.94 in1013.9 mb - 0.00 in0.0 mm 0.00 in0.0 mm
07:00 PM 69.1°F20.6°C 56.4°F13.6°C 64% 2.3 mph SW3.7 kmh SW 3.5 mph5.6 kmh 29.94 in1013.9 mb - 0.00 in0.0 mm 0.00 in0.0 mm
07:10 PM 68.5°F20.3°C 56.3°F13.5°C 65% 1.2 mph S1.9 kmh S 5.8 mph9.3 kmh 29.94 in1013.9 mb - 0.00 in0.0 mm 0.00 in0.0 mm
07:15 PM 68.4°F20.2°C 56.1°F13.4°C 65% 2.3 mph SE3.7 kmh SE 3.5 mph5.6 kmh 29.94 in1013.9 mb - 0.00 in0.0 mm 0.00 in0.0 mm
07:20 PM 68.2°F20.1°C 56.4°F13.6°C 66% 1.2 mph W1.9 kmh W 3.5 mph5.6 kmh 29.94 in1013.9 mb - 0.00 in0.0 mm 0.00 in0.0 mm
07:25 PM 68.0°F20.0°C 56.2°F13.4°C 66% 1.2 mph E1.9 kmh E 1.2 mph1.9 kmh 29.94 in1013.9 mb - 0.00 in0.0 mm 0.00 in0.0 mm
07:30 PM 67.6°F19.8°C 56.3°F13.5°C 67% 1.2 mph E1.9 kmh E 2.3 mph3.7 kmh 29.94 in1013.9 mb - 0.00 in0.0 mm 0.00 in0.0 mm
07:35 PM 67.5°F19.7°C 56.5°F13.6°C 68% 1.2 mph E1.9 kmh E 2.3 mph3.7 kmh 29.94 in1013.9 mb - 0.00 in0.0 mm 0.00 in0.0 mm
07:40 PM 67.1°F19.5°C 56.2°F13.4°C 68% 2.3 mph NE3.7 kmh NE 3.5 mph5.6 kmh 29.94 in1013.9 mb - 0.00 in0.0 mm 0.00 in0.0 mm
07:45 PM 66.6°F19.2°C 56.5°F13.6°C 70% 1.2 mph E1.9 kmh E 3.5 mph5.6 kmh 29.94 in1013.9 mb - 0.00 in0.0 mm 0.00 in0.0 mm
07:50 PM 66.2°F19.0°C 56.1°F13.4°C 70% 1.2 mph NE1.9 kmh NE 2.3 mph3.7 kmh 29.94 in1013.9 mb - 0.00 in0.0 mm 0.00 in0.0 mm
07:55 PM 65.9°F18.8°C 56.6°F13.7°C 72% 1.2 mph NE1.9 kmh NE 2.3 mph3.7 kmh 29.94 in1013.9 mb - 0.00 in0.0 mm 0.00 in0.0 mm
08:00 PM 65.7°F18.7°C 56.4°F13.6°C 72% Calm Calm -- 29.94 in1013.9 mb - 0.00 in0.0 mm 0.00 in0.0 mm
08:10 PM 65.1°F18.4°C 56.2°F13.4°C 73% Calm Calm 1.2 mph1.9 kmh 29.94 in1013.9 mb - 0.00 in0.0 mm 0.00 in0.0 mm
08:15 PM 64.8°F18.2°C 56.3°F13.5°C 74% 1.2 mph NNW1.9 kmh NNW 2.3 mph3.7 kmh 29.94 in1013.9 mb - 0.00 in0.0 mm 0.00 in0.0 mm
08:20 PM 64.6°F18.1°C 56.5°F13.6°C 75% Calm Calm 1.2 mph1.9 kmh 29.94 in1013.9 mb - 0.00 in0.0 mm 0.00 in0.0 mm
08:25 PM 64.4°F18.0°C 56.3°F13.5°C 75% Calm Calm -- 29.94 in1013.9 mb - 0.00 in0.0 mm 0.00 in0.0 mm
08:30 PM 64.0°F17.8°C 56.0°F13.3°C 75% Calm Calm -- 29.94 in1013.9 mb - 0.00 in0.0 mm 0.00 in0.0 mm
08:35 PM 63.9°F17.7°C 55.8°F13.2°C 75% Calm Calm -- 29.94 in1013.9 mb - 0.00 in0.0 mm 0.00 in0.0 mm
08:40 PM 63.5°F17.5°C 55.4°F13.0°C 75% Calm Calm -- 29.94 in1013.9 mb - 0.00 in0.0 mm 0.00 in0.0 mm
08:45 PM 63.2°F17.3°C 55.1°F12.8°C 75% Calm Calm -- 29.94 in1013.9 mb - 0.00 in0.0 mm 0.00 in0.0 mm
08:50 PM 63.0°F17.2°C 55.3°F12.9°C 76% Calm Calm -- 29.94 in1013.9 mb - 0.00 in0.0 mm 0.00 in0.0 mm
08:55 PM 62.6°F17.0°C 54.9°F12.7°C 76% Calm Calm -- 29.94 in1013.9 mb - 0.00 in0.0 mm 0.00 in0.0 mm
09:00 PM 62.3°F16.8°C 55.3°F12.9°C 78% Calm Calm -- 29.94 in1013.9 mb - 0.00 in0.0 mm 0.00 in0.0 mm
09:10 PM 62.1°F16.7°C 55.8°F13.2°C 80% Calm Calm -- 29.97 in1014.9 mb - 0.00 in0.0 mm 0.00 in0.0 mm
09:15 PM 61.9°F16.6°C 55.6°F13.1°C 80% Calm Calm 1.2 mph1.9 kmh 29.97 in1014.9 mb - 0.00 in0.0 mm 0.00 in0.0 mm
09:20 PM 61.7°F16.5°C 55.5°F13.1°C 80% 1.2 mph W1.9 kmh W 1.2 mph1.9 kmh 29.97 in1014.9 mb - 0.00 in0.0 mm 0.00 in0.0 mm
09:25 PM 61.4°F16.3°C 55.5°F13.1°C 81% 2.3 mph WNW3.7 kmh WNW 3.5 mph5.6 kmh 29.97 in1014.9 mb - 0.00 in0.0 mm 0.00 in0.0 mm
09:30 PM 61.2°F16.2°C 55.3°F12.9°C 81% 2.3 mph W3.7 kmh W 4.6 mph7.4 kmh 29.97 in1014.9 mb - 0.00 in0.0 mm 0.00 in0.0 mm
09:35 PM 61.2°F16.2°C 55.6°F13.1°C 82% 1.2 mph NW1.9 kmh NW 2.3 mph3.7 kmh 29.97 in1014.9 mb - 0.00 in0.0 mm 0.00 in0.0 mm
09:40 PM 61.0°F16.1°C 55.4°F13.0°C 82% 1.2 mph NW1.9 kmh NW 3.5 mph5.6 kmh 29.97 in1014.9 mb - 0.00 in0.0 mm 0.00 in0.0 mm
09:45 PM 60.6°F15.9°C 55.4°F13.0°C 83% Calm Calm 1.2 mph1.9 kmh 29.97 in1014.9 mb - 0.00 in0.0 mm 0.00 in0.0 mm
09:50 PM 60.4°F15.8°C 55.3°F12.9°C 83% Calm Calm 2.3 mph3.7 kmh 29.97 in1014.9 mb - 0.00 in0.0 mm 0.00 in0.0 mm
09:55 PM 60.3°F15.7°C 55.1°F12.8°C 83% 1.2 mph 1.9 kmh 1.2 mph1.9 kmh 29.97 in1014.9 mb - 0.00 in0.0 mm 0.00 in0.0 mm
10:00 PM 60.1°F15.6°C 55.2°F12.9°C 84% 3.5 mph W5.6 kmh W 4.6 mph7.4 kmh 29.97 in1014.9 mb - 0.00 in0.0 mm 0.00 in0.0 mm
10:10 PM 59.7°F15.4°C 54.9°F12.7°C 84% Calm Calm 1.2 mph1.9 kmh 29.97 in1014.9 mb - 0.00 in0.0 mm 0.00 in0.0 mm
10:15 PM 59.5°F15.3°C 54.7°F12.6°C 84% 1.2 mph NW1.9 kmh NW 1.2 mph1.9 kmh 29.97 in1014.9 mb - 0.00 in0.0 mm 0.00 in0.0 mm
10:20 PM 59.2°F15.1°C 54.7°F12.6°C 85% 1.2 mph W1.9 kmh W 3.5 mph5.6 kmh 29.97 in1014.9 mb - 0.00 in0.0 mm 0.00 in0.0 mm
10:25 PM 59.2°F15.1°C 54.7°F12.6°C 85% 1.2 mph NW1.9 kmh NW 2.3 mph3.7 kmh 29.97 in1014.9 mb - 0.00 in0.0 mm 0.00 in0.0 mm
10:30 PM 59.2°F15.1°C 54.7°F12.6°C 85% 1.2 mph NW1.9 kmh NW 1.2 mph1.9 kmh 29.97 in1014.9 mb - 0.00 in0.0 mm 0.00 in0.0 mm
10:35 PM 59.2°F15.1°C 54.7°F12.6°C 85% 3.5 mph W5.6 kmh W 4.6 mph7.4 kmh 29.97 in1014.9 mb - 0.00 in0.0 mm 0.00 in0.0 mm
10:40 PM 59.2°F15.1°C 55.0°F12.8°C 86% 4.6 mph W7.4 kmh W 5.8 mph9.3 kmh 29.97 in1014.9 mb - 0.00 in0.0 mm 0.00 in0.0 mm
10:45 PM 59.5°F15.3°C 55.7°F13.2°C 87% 3.5 mph W5.6 kmh W 4.6 mph7.4 kmh 29.97 in1014.9 mb - 0.00 in0.0 mm 0.00 in0.0 mm
10:50 PM 60.1°F15.6°C 56.5°F13.6°C 88% 3.5 mph NW5.6 kmh NW 3.5 mph5.6 kmh 29.97 in1014.9 mb - 0.00 in0.0 mm 0.00 in0.0 mm
10:55 PM 60.3°F15.7°C 56.4°F13.6°C 87% 1.2 mph W1.9 kmh W 2.3 mph3.7 kmh 29.97 in1014.9 mb - 0.00 in0.0 mm 0.00 in0.0 mm
11:00 PM 60.3°F15.7°C 56.4°F13.6°C 87% 3.5 mph NW5.6 kmh NW 3.5 mph5.6 kmh 29.97 in1014.9 mb - 0.00 in0.0 mm 0.00 in0.0 mm
11:10 PM 60.1°F15.6°C 56.2°F13.4°C 87% 1.2 mph SW1.9 kmh SW 2.3 mph3.7 kmh 29.97 in1014.9 mb - 0.00 in0.0 mm 0.00 in0.0 mm
11:15 PM 59.9°F15.5°C 56.0°F13.3°C 87% Calm Calm 1.2 mph1.9 kmh 29.97 in1014.9 mb - 0.00 in0.0 mm 0.00 in0.0 mm
11:20 PM 59.9°F15.5°C 56.0°F13.3°C 87% 1.2 mph NW1.9 kmh NW 3.5 mph5.6 kmh 29.97 in1014.9 mb - 0.00 in0.0 mm 0.00 in0.0 mm
11:25 PM 59.5°F15.3°C 55.7°F13.2°C 87% 2.3 mph WNW3.7 kmh WNW 3.5 mph5.6 kmh 29.97 in1014.9 mb - 0.00 in0.0 mm 0.00 in0.0 mm
11:30 PM 59.5°F15.3°C 55.7°F13.2°C 87% 1.2 mph W1.9 kmh W 2.3 mph3.7 kmh 29.97 in1014.9 mb - 0.00 in0.0 mm 0.00 in0.0 mm
11:35 PM 59.4°F15.2°C 55.5°F13.1°C 87% 1.2 mph NW1.9 kmh NW 2.3 mph3.7 kmh 29.97 in1014.9 mb - 0.00 in0.0 mm 0.00 in0.0 mm
11:40 PM 59.2°F15.1°C 55.3°F12.9°C 87% Calm Calm 1.2 mph1.9 kmh 29.97 in1014.9 mb - 0.00 in0.0 mm 0.00 in0.0 mm
11:45 PM 59.0°F15.0°C 55.1°F12.8°C 87% Calm Calm 1.2 mph1.9 kmh 29.97 in1014.9 mb - 0.00 in0.0 mm 0.00 in0.0 mm
11:50 PM 58.8°F14.9°C 55.3°F12.9°C 88% Calm Calm -- 29.97 in1014.9 mb - 0.00 in0.0 mm 0.00 in0.0 mm
11:55 PM 58.6°F14.8°C 55.1°F12.8°C 88% Calm Calm 1.2 mph1.9 kmh 29.97 in1014.9 mb - 0.00 in0.0 mm 0.00 in0.0 mm